Terminal Aerodrome Forecast
Issued by NWS Twin Cities, MN

Home | Current Version | Previous Version | Text Only | Print | Product List | Glossary On
Versions: 1 2 3 4 5 6 7 8 9 10 11 12 13
934
FTUS43 KMPX 141139
TAFEAU
TAF
KEAU 141139Z 1412/1512 12010KT P6SM OVC050
     FM141700 14011KT 5SM -SN SCT025 OVC040
     FM141900 15010KT 4SM -SN OVC018
     FM150600 18004KT P6SM OVC012=

USA.gov is the U.S. government's official web portal to all federal, state and local government web resources and services.